createdAt,value
2018-04-25T00:01:53.420Z,98618.94
2018-04-25T00:04:22.365Z,98624.70
2018-04-25T00:06:51.351Z,98620.81
2018-04-25T00:09:20.218Z,98621.31
2018-04-25T00:11:49.119Z,98621.31
2018-04-25T00:14:18.100Z,98626.66
2018-04-25T00:16:46.981Z,98626.75
2018-04-25T00:19:15.855Z,98625.42
2018-04-25T00:21:44.498Z,98629.94
2018-04-25T00:24:13.632Z,98634.03
2018-04-25T00:26:42.510Z,98636.80
2018-04-25T00:29:11.167Z,98641.73
2018-04-25T00:31:40.289Z,98642.65
2018-04-25T00:34:08.925Z,98639.23
2018-04-25T00:36:37.727Z,98648.18
2018-04-25T00:39:06.679Z,98650.11
2018-04-25T00:41:35.556Z,98656.00
2018-04-25T00:44:04.536Z,98661.84
2018-04-25T00:46:34.166Z,98664.20
2018-04-25T00:49:03.127Z,98668.71
2018-04-25T00:51:32.172Z,98670.05
2018-04-25T00:54:01.363Z,98678.16
2018-04-25T00:56:30.114Z,98688.34
2018-04-25T00:58:59.287Z,98689.77
2018-04-25T01:01:28.506Z,98690.19
2018-04-25T01:03:57.497Z,98701.39
2018-04-25T01:06:26.430Z,98706.31
2018-04-25T01:08:55.413Z,98716.17
2018-04-25T01:11:24.022Z,98710.41
2018-04-25T01:13:52.923Z,98716.77
2018-04-25T01:16:22.022Z,98715.52
2018-04-25T01:18:50.864Z,98721.50
2018-04-25T01:21:19.861Z,98721.08
2018-04-25T01:23:48.918Z,98725.59
2018-04-25T01:26:18.158Z,98729.70
2018-04-25T01:28:49.909Z,98736.88
2018-04-25T01:31:20.612Z,98734.80
2018-04-25T01:34:03.986Z,98738.91
2018-04-25T01:36:44.714Z,98746.51
2018-04-25T01:42:17.632Z,98748.77
2018-04-25T01:44:53.315Z,98753.69
2018-04-25T01:47:23.975Z,98754.20
2018-04-25T01:49:57.306Z,98760.88
2018-04-25T01:52:37.584Z,98755.53
2018-04-25T01:55:17.957Z,98766.81
2018-04-25T01:57:58.602Z,98768.69
2018-04-25T02:00:38.920Z,98770.44
2018-04-25T02:03:06.773Z,98773.62
2018-04-25T02:05:35.349Z,98776.38
2018-04-25T02:08:04.236Z,98777.39
2018-04-25T02:10:32.980Z,98778.73
2018-04-25T02:13:01.942Z,98774.80
2018-04-25T02:15:31.004Z,98773.97
2018-04-25T02:17:59.670Z,98776.65
2018-04-25T02:20:28.442Z,98779.83
2018-04-25T02:22:57.027Z,98783.92
2018-04-25T02:25:26.012Z,98786.17
2018-04-25T02:27:54.850Z,98788.02
2018-04-25T02:30:23.493Z,98783.59
2018-04-25T02:32:51.928Z,98787.19
2018-04-25T02:35:20.441Z,98791.82
2018-04-25T02:37:49.520Z,98796.23
2018-04-25T02:40:18.244Z,98797.07
2018-04-25T02:45:29.595Z,98796.89
2018-04-25T02:47:58.444Z,98807.52
2018-04-25T02:50:27.921Z,98808.41
2018-04-25T02:52:56.726Z,98805.33
2018-04-25T02:55:25.605Z,98809.28
2018-04-25T02:57:54.499Z,98810.67
2018-04-25T03:00:23.171Z,98809.42
2018-04-25T03:02:51.824Z,98814.77
2018-04-25T03:05:20.671Z,98820.53
2018-04-25T03:07:49.668Z,98819.70
2018-04-25T03:10:18.389Z,98817.44
2018-04-25T03:12:47.410Z,98814.86
2018-04-25T03:15:16.332Z,98818.36
2018-04-25T03:17:45.268Z,98817.62
2018-04-25T03:20:14.033Z,98817.28
2018-04-25T03:22:42.749Z,98819.45
2018-04-25T03:25:11.574Z,98822.55
2018-04-25T03:27:40.322Z,98827.05
2018-04-25T03:30:27.285Z,98833.98
2018-04-25T03:32:56.286Z,98829.97
2018-04-25T03:35:25.316Z,98830.30
2018-04-25T03:37:54.140Z,98827.20
2018-04-25T03:40:22.842Z,98833.47
2018-04-25T03:42:51.957Z,98833.38
2018-04-25T03:45:20.925Z,98838.81
2018-04-25T03:47:49.638Z,98839.32
2018-04-25T03:50:18.518Z,98839.73
2018-04-25T03:52:47.826Z,98843.33
2018-04-25T03:55:16.505Z,98841.08
2018-04-25T03:57:45.356Z,98846.42
2018-04-25T04:00:14.308Z,98854.34
2018-04-25T04:02:43.008Z,98848.08
2018-04-25T04:05:11.701Z,98846.69
2018-04-25T04:07:40.194Z,98852.51
2018-04-25T04:10:09.495Z,98849.36
2018-04-25T04:12:38.477Z,98846.19
2018-04-25T04:15:07.142Z,98851.53
2018-04-25T04:17:36.099Z,98854.62
2018-04-25T04:20:04.759Z,98849.16
2018-04-25T04:22:33.294Z,98855.84
2018-04-25T04:25:01.926Z,98852.87
2018-04-25T04:27:30.932Z,98851.41
2018-04-25T04:30:00.978Z,98845.27
2018-04-25T04:32:31.062Z,98845.66
2018-04-25T04:34:59.871Z,98845.27
2018-04-25T04:37:29.987Z,98845.27
2018-04-25T04:40:03.434Z,98838.59
2018-04-25T04:42:35.231Z,98834.96
2018-04-25T04:45:09.233Z,98835.91
2018-04-25T04:47:42.261Z,98836.42
2018-04-25T04:50:12.894Z,98834.25
2018-04-25T04:52:41.566Z,98833.75
2018-04-25T04:55:14.275Z,98825.02
2018-04-25T04:57:43.291Z,98825.44
2018-04-25T05:00:18.037Z,98825.73
2018-04-25T05:02:50.537Z,98827.89
2018-04-25T05:05:22.722Z,98827.69
2018-04-25T05:07:52.829Z,98810.97
2018-04-25T05:10:26.120Z,98818.58
2018-04-25T05:12:57.279Z,98812.22
2018-04-25T05:15:27.149Z,98808.95
2018-04-25T05:17:57.324Z,98807.12
2018-04-25T05:20:28.837Z,98807.03
2018-04-25T05:23:02.647Z,98796.34
2018-04-25T05:25:34.011Z,98798.09
2018-04-25T05:28:02.755Z,98795.00
2018-04-25T05:30:31.534Z,98791.91
2018-04-25T05:33:00.306Z,98789.03
2018-04-25T05:35:29.194Z,98792.95
2018-04-25T05:37:58.472Z,98783.59
2018-04-25T05:40:27.352Z,98783.19
2018-04-25T05:42:56.400Z,98786.18
2018-04-25T05:45:25.603Z,98775.41
2018-04-25T05:47:54.714Z,98761.53
2018-04-25T05:50:26.215Z,98766.87
2018-04-25T05:52:55.309Z,98763.20
2018-04-25T05:55:25.937Z,98761.36
2018-04-25T05:57:55.775Z,98747.48
2018-04-25T06:00:24.718Z,98745.50
2018-04-25T06:02:54.337Z,98742.94
2018-04-25T06:05:23.346Z,98737.77
2018-04-25T06:07:53.853Z,98727.50
2018-04-25T06:10:23.014Z,98721.56
2018-04-25T06:12:52.240Z,98718.83
2018-04-25T06:15:21.888Z,98711.05
2018-04-25T06:17:54.497Z,98718.66
2018-04-25T06:20:24.026Z,98708.70
2018-04-25T06:22:57.119Z,98700.24
2018-04-25T06:25:28.711Z,98703.16
2018-04-25T06:27:59.988Z,98695.70
2018-04-25T06:30:29.971Z,98697.66
2018-04-25T06:33:01.682Z,98687.29
2018-04-25T06:35:33.258Z,98684.94
2018-04-25T06:38:06.154Z,98684.77
2018-04-25T06:40:35.738Z,98674.30
2018-04-25T06:43:04.725Z,98667.41
2018-04-25T06:45:35.566Z,98663.73
2018-04-25T06:48:04.389Z,98665.39
2018-04-25T06:50:33.520Z,98663.64
2018-04-25T06:53:02.787Z,98655.95
2018-04-25T06:55:31.818Z,98653.18
2018-04-25T06:58:01.738Z,98650.00
2018-04-25T07:00:30.585Z,98653.92
2018-04-25T07:03:00.429Z,98638.63
2018-04-25T07:05:29.547Z,98633.15
2018-04-25T07:07:58.380Z,98635.23
2018-04-25T07:10:27.344Z,98631.31
2018-04-25T07:12:56.084Z,98629.05
2018-04-25T07:15:25.332Z,98628.87
2018-04-25T07:17:54.320Z,98619.33
2018-04-25T07:20:23.150Z,98616.48
2018-04-25T07:22:52.329Z,98614.92
2018-04-25T07:25:21.921Z,98602.39
2018-04-25T07:27:50.685Z,98599.63
2018-04-25T07:30:19.564Z,98591.92
2018-04-25T07:32:48.335Z,98591.33
2018-04-25T07:35:17.509Z,98588.98
2018-04-25T07:37:46.090Z,98581.88
2018-04-25T07:40:14.984Z,98580.86
2018-04-25T07:42:44.137Z,98582.02
2018-04-25T07:45:12.929Z,98572.66
2018-04-25T07:47:41.841Z,98564.92
2018-04-25T07:50:10.945Z,98560.73
2018-04-25T07:52:39.948Z,98560.22
2018-04-25T07:55:09.352Z,98550.77
2018-04-25T07:57:37.932Z,98556.95
2018-04-25T08:00:06.886Z,98549.66
2018-04-25T08:02:36.102Z,98540.13
2018-04-25T08:05:04.892Z,98531.47
2018-04-25T08:07:33.710Z,98526.44
2018-04-25T08:10:02.564Z,98521.00
2018-04-25T08:12:43.178Z,98524.31
2018-04-25T08:15:23.856Z,98522.37
2018-04-25T08:18:04.476Z,98508.91
2018-04-25T08:20:45.185Z,98503.89
2018-04-25T08:23:14.047Z,98495.27
2018-04-25T08:25:42.879Z,98488.48
2018-04-25T08:28:15.192Z,98490.65
2018-04-25T08:30:43.977Z,98486.64
2018-04-25T08:33:14.122Z,98487.38
2018-04-25T08:35:42.908Z,98480.09
2018-04-25T08:38:12.613Z,98473.72
2018-04-25T08:40:41.225Z,98473.50
2018-04-25T08:43:09.718Z,98464.55
2018-04-25T08:45:38.796Z,98460.86
2018-04-25T08:48:07.351Z,98459.84
2018-04-25T08:50:36.312Z,98453.98
2018-04-25T08:53:05.532Z,98444.44
2018-04-25T08:55:34.092Z,98440.23
2018-04-25T08:58:03.000Z,98439.59
2018-04-25T09:00:31.739Z,98425.11
2018-04-25T09:03:00.496Z,98425.43
2018-04-25T09:05:29.683Z,98423.58
2018-04-25T09:07:58.405Z,98420.72
2018-04-25T09:10:27.727Z,98412.59
2018-04-25T09:12:56.659Z,98410.11
2018-04-25T09:15:25.563Z,98403.84
2018-04-25T09:17:55.822Z,98402.00
2018-04-25T09:20:24.764Z,98400.56
2018-04-25T09:22:53.579Z,98392.76
2018-04-25T09:25:22.904Z,98385.97
2018-04-25T09:27:51.858Z,98379.19
2018-04-25T09:30:20.842Z,98386.30
2018-04-25T09:32:49.663Z,98382.06
2018-04-25T09:35:18.732Z,98381.77
2018-04-25T09:37:48.129Z,98372.31
2018-04-25T09:40:17.700Z,98370.37
2018-04-25T09:42:46.745Z,98375.52
2018-04-25T09:45:15.832Z,98373.45
2018-04-25T09:47:45.845Z,98359.47
2018-04-25T09:50:14.831Z,98347.33
2018-04-25T09:52:44.899Z,98347.55
2018-04-25T09:55:13.948Z,98347.87
2018-04-25T09:57:43.057Z,98334.80
2018-04-25T10:00:12.680Z,98337.67
2018-04-25T10:02:42.023Z,98341.48
2018-04-25T10:05:11.226Z,98347.67
2018-04-25T10:07:40.172Z,98331.10
2018-04-25T10:10:09.430Z,98331.83
2018-04-25T10:12:38.197Z,98339.77
2018-04-25T10:15:07.519Z,98331.13
2018-04-25T10:17:37.020Z,98330.52
2018-04-25T10:20:06.586Z,98327.65
2018-04-25T10:22:35.658Z,98327.97
2018-04-25T10:25:04.803Z,98324.68
2018-04-25T10:27:33.964Z,98321.39
2018-04-25T10:30:02.766Z,98318.08
2018-04-25T10:32:31.767Z,98313.45
2018-04-25T10:35:00.580Z,98314.70
2018-04-25T10:37:29.570Z,98312.84
2018-04-25T10:39:59.792Z,98308.54
2018-04-25T10:42:28.885Z,98310.51
2018-04-25T10:45:02.104Z,98319.14
2018-04-25T10:47:35.168Z,98314.52
2018-04-25T10:50:05.111Z,98304.63
2018-04-25T10:52:35.418Z,98303.61
2018-04-25T10:55:05.566Z,98300.83
2018-04-25T10:57:34.676Z,98298.47
2018-04-25T11:00:03.973Z,98293.81
2018-04-25T11:02:33.128Z,98292.70
2018-04-25T11:05:02.543Z,98291.87
2018-04-25T11:07:31.924Z,98296.10
2018-04-25T11:10:01.285Z,98295.59
2018-04-25T11:12:30.948Z,98291.69
2018-04-25T11:15:01.267Z,98289.42
2018-04-25T11:17:30.734Z,98285.69
2018-04-25T11:20:01.214Z,98282.50
2018-04-25T11:22:30.546Z,98278.39
2018-04-25T11:24:59.123Z,98276.84
2018-04-25T11:27:27.937Z,98266.45
2018-04-25T11:29:56.825Z,98268.42
2018-04-25T11:32:25.383Z,98262.66
2018-04-25T11:34:53.988Z,98260.67
2018-04-25T11:37:22.697Z,98265.31
2018-04-25T11:39:51.451Z,98258.11
2018-04-25T11:42:20.147Z,98261.61
2018-04-25T11:44:48.652Z,98256.26
2018-04-25T11:47:17.809Z,98264.09
2018-04-25T11:49:46.655Z,98257.71
2018-04-25T11:52:15.462Z,98257.61
2018-04-25T11:54:44.154Z,98259.13
2018-04-25T11:57:12.657Z,98264.29
2018-04-25T11:59:41.689Z,98256.26
2018-04-25T12:02:10.589Z,98257.50
2018-04-25T12:04:39.363Z,98249.78
2018-04-25T12:07:08.490Z,98255.03
2018-04-25T12:09:37.300Z,98256.69
2018-04-25T12:12:05.596Z,98253.81
2018-04-25T12:14:34.451Z,98255.97
2018-04-25T12:17:03.130Z,98259.80
2018-04-25T12:22:25.903Z,98256.91
2018-04-25T12:24:54.508Z,98262.17
2018-04-25T12:27:23.271Z,98264.85
2018-04-25T12:29:52.188Z,98262.69
2018-04-25T12:32:21.004Z,98261.34
2018-04-25T12:34:49.966Z,98271.55
2018-04-25T12:37:18.480Z,98271.95
2018-04-25T12:39:47.010Z,98269.28
2018-04-25T12:42:16.061Z,98270.52
2018-04-25T12:44:44.688Z,98273.61
2018-04-25T12:47:13.718Z,98272.17
2018-04-25T12:49:42.204Z,98272.97
2018-04-25T12:52:10.931Z,98275.55
2018-04-25T12:54:39.701Z,98281.62
2018-04-25T12:57:10.077Z,98280.70
2018-04-25T12:59:38.440Z,98289.57
2018-04-25T13:02:06.783Z,98288.64
2018-04-25T13:04:35.614Z,98300.70
2018-04-25T13:07:04.092Z,98295.75
2018-04-25T13:09:32.837Z,98296.99
2018-04-25T13:12:01.968Z,98302.66
2018-04-25T13:14:30.848Z,98295.66
2018-04-25T13:16:59.685Z,98303.69
2018-04-25T13:19:28.138Z,98300.91
2018-04-25T13:21:57.163Z,98299.57
2018-04-25T13:24:26.175Z,98305.75
2018-04-25T13:26:55.058Z,98311.53
2018-04-25T13:29:23.695Z,98317.30
2018-04-25T13:31:52.423Z,98315.55
2018-04-25T13:34:21.208Z,98315.96
2018-04-25T13:36:50.028Z,98322.55
2018-04-25T13:39:18.646Z,98319.05
2018-04-25T13:41:47.466Z,98325.23
2018-04-25T13:44:16.500Z,98326.58
2018-04-25T13:46:44.992Z,98334.89
2018-04-25T13:49:13.731Z,98331.01
2018-04-25T13:51:42.257Z,98332.73
2018-04-25T13:54:10.902Z,98333.14
2018-04-25T13:56:39.599Z,98339.33
2018-04-25T13:59:08.913Z,98343.34
2018-04-25T14:01:38.002Z,98344.27
2018-04-25T14:04:06.534Z,98346.95
2018-04-25T14:06:35.178Z,98356.33
2018-04-25T14:09:04.013Z,98355.12
2018-04-25T14:11:33.385Z,98359.94
2018-04-25T14:14:01.827Z,98356.05
2018-04-25T14:16:30.674Z,98359.65
2018-04-25T14:18:59.286Z,98371.58
2018-04-25T14:21:28.577Z,98373.45
2018-04-25T14:23:57.354Z,98375.59
2018-04-25T14:26:26.061Z,98380.16
2018-04-25T14:28:54.901Z,98386.31
2018-04-25T14:31:23.649Z,98387.14
2018-04-25T14:33:52.457Z,98387.14
2018-04-25T14:36:21.445Z,98386.95
2018-04-25T14:38:50.461Z,98392.08
2018-04-25T14:41:19.234Z,98400.02
2018-04-25T14:43:48.501Z,98400.02
2018-04-25T14:46:17.630Z,98405.38
2018-04-25T14:48:46.728Z,98400.84
2018-04-25T14:51:15.455Z,98412.39
2018-04-25T14:53:44.316Z,98415.17
2018-04-25T14:56:13.254Z,98413.83
2018-04-25T14:58:42.038Z,98414.24
2018-04-25T15:01:11.518Z,98419.19
2018-04-25T15:03:40.242Z,98420.11
2018-04-25T15:06:08.945Z,98418.77
2018-04-25T15:08:37.799Z,98417.84
2018-04-25T15:11:07.262Z,98418.46
2018-04-25T15:13:36.173Z,98424.23
2018-04-25T15:16:04.930Z,98421.14
2018-04-25T15:18:33.555Z,98425.47
2018-04-25T15:21:02.464Z,98437.43
2018-04-25T15:23:31.321Z,98434.34
2018-04-25T15:25:59.928Z,98431.97
2018-04-25T15:28:28.900Z,98433.73
2018-04-25T15:30:58.139Z,98437.84
2018-04-25T15:33:26.827Z,98440.02
2018-04-25T15:35:56.064Z,98447.44
2018-04-25T15:38:24.987Z,98442.50
2018-04-25T15:41:05.631Z,98446.41
2018-04-25T15:43:34.500Z,98450.95
2018-04-25T15:46:03.230Z,98449.70
2018-04-25T15:48:32.189Z,98454.55
2018-04-25T15:51:01.302Z,98454.97
2018-04-25T15:53:30.248Z,98451.36
2018-04-25T15:55:59.147Z,98453.53
2018-04-25T15:58:27.673Z,98457.13
2018-04-25T16:00:56.459Z,98453.02
2018-04-25T16:03:25.525Z,98456.52
2018-04-25T16:05:54.282Z,98455.59
2018-04-25T16:08:23.231Z,98450.66
2018-04-25T16:10:52.075Z,98451.86
2018-04-25T16:13:20.949Z,98458.05
2018-04-25T16:15:49.896Z,98454.34
2018-04-25T16:18:18.837Z,98458.36
2018-04-25T16:20:47.615Z,98456.09
2018-04-25T16:23:16.528Z,98453.01
2018-04-25T16:25:45.427Z,98453.01
2018-04-25T16:28:14.594Z,98455.69
2018-04-25T16:30:43.338Z,98453.52
2018-04-25T16:33:12.474Z,98453.93
2018-04-25T16:35:41.420Z,98452.28
2018-04-25T16:38:10.267Z,98451.06
2018-04-25T16:40:39.004Z,98447.05
2018-04-25T16:43:07.957Z,98447.84
2018-04-25T16:45:37.137Z,98451.45
2018-04-25T16:48:06.087Z,98451.34
2018-04-25T16:50:34.891Z,98449.91
2018-04-25T16:53:03.914Z,98443.12
2018-04-25T16:55:32.731Z,98442.61
2018-04-25T16:58:01.511Z,98446.11
2018-04-25T17:00:30.786Z,98447.86
2018-04-25T17:02:59.892Z,98446.52
2018-04-25T17:05:28.905Z,98437.97
2018-04-25T17:07:57.853Z,98437.46
2018-04-25T17:10:26.950Z,98441.48
2018-04-25T17:12:56.083Z,98444.58
2018-04-25T17:15:24.838Z,98440.55
2018-04-25T17:17:53.808Z,98439.63
2018-04-25T17:20:22.769Z,98435.20
2018-04-25T17:22:51.721Z,98432.61
2018-04-25T17:25:21.042Z,98432.10
2018-04-25T17:27:50.212Z,98435.30
2018-04-25T17:30:20.286Z,98425.09
2018-04-25T17:32:49.257Z,98423.84
2018-04-25T17:35:18.464Z,98418.08
2018-04-25T17:37:47.474Z,98410.23
2018-04-25T17:40:16.269Z,98414.77
2018-04-25T17:42:44.990Z,98407.14
2018-04-25T17:45:13.567Z,98405.29
2018-04-25T17:47:43.717Z,98401.17
2018-04-25T17:50:12.439Z,98399.93
2018-04-25T17:52:41.383Z,98399.33
2018-04-25T17:55:10.419Z,98398.81
2018-04-25T17:57:39.520Z,98396.52
2018-04-25T18:00:08.404Z,98402.61
2018-04-25T18:02:37.333Z,98395.50
2018-04-25T18:05:06.556Z,98392.81
2018-04-25T18:07:35.702Z,98387.05
2018-04-25T18:10:04.541Z,98387.05
2018-04-25T18:12:33.482Z,98387.05
2018-04-25T18:15:02.873Z,98382.61
2018-04-25T18:17:31.881Z,98380.86
2018-04-25T18:20:00.643Z,98376.05
2018-04-25T18:22:29.763Z,98382.20
2018-04-25T18:24:58.767Z,98371.89
2018-04-25T18:27:27.652Z,98375.09
2018-04-25T18:29:56.697Z,98372.53
2018-04-25T18:32:25.388Z,98373.75
2018-04-25T18:34:54.256Z,98374.16
2018-04-25T18:37:23.303Z,98373.23
2018-04-25T18:39:52.059Z,98373.37
2018-04-25T18:42:21.063Z,98374.29
2018-04-25T18:44:50.297Z,98369.63
2018-04-25T18:47:19.061Z,98374.98
2018-04-25T18:49:47.826Z,98365.61
2018-04-25T18:52:16.844Z,98362.00
2018-04-25T18:54:46.640Z,98359.73
2018-04-25T18:57:15.631Z,98356.64
2018-04-25T18:59:44.508Z,98349.44
2018-04-25T19:02:13.577Z,98346.24
2018-04-25T19:04:42.894Z,98343.25
2018-04-25T19:07:11.667Z,98345.41
2018-04-25T19:09:40.545Z,98343.98
2018-04-25T19:12:09.509Z,98342.02
2018-04-25T19:14:38.400Z,98337.27
2018-04-25T19:17:07.494Z,98330.48
2018-04-25T19:19:36.409Z,98330.38
2018-04-25T19:22:06.142Z,98324.92
2018-04-25T19:24:34.818Z,98328.84
2018-04-25T19:27:03.755Z,98328.74
2018-04-25T19:29:32.788Z,98328.20
2018-04-25T19:32:01.584Z,98331.42
2018-04-25T19:34:30.367Z,98334.38
2018-04-25T19:36:59.407Z,98326.86
2018-04-25T19:39:28.411Z,98322.45
2018-04-25T19:41:57.381Z,98329.16
2018-04-25T19:44:26.309Z,98322.45
2018-04-25T19:46:55.282Z,98317.20
2018-04-25T19:49:23.925Z,98324.00
2018-04-25T19:51:52.815Z,98319.98
2018-04-25T19:54:21.703Z,98324.41
2018-04-25T19:56:50.609Z,98316.98
2018-04-25T19:59:19.881Z,98316.57
2018-04-25T20:01:48.623Z,98309.46
2018-04-25T20:04:17.331Z,98310.80
2018-04-25T20:06:45.936Z,98309.87
2018-04-25T20:09:14.753Z,98308.63
2018-04-25T20:11:43.633Z,98303.69
2018-04-25T20:14:12.575Z,98303.69
2018-04-25T20:16:41.435Z,98303.27
2018-04-25T20:19:10.460Z,98301.01
2018-04-25T20:21:39.176Z,98297.91
2018-04-25T20:24:08.399Z,98295.23
2018-04-25T20:26:37.196Z,98293.48
2018-04-25T20:29:06.329Z,98291.32
2018-04-25T20:31:35.066Z,98293.59
2018-04-25T20:34:04.001Z,98291.42
2018-04-25T20:36:33.067Z,98292.86
2018-04-25T20:39:01.723Z,98292.95
2018-04-25T20:41:30.626Z,98288.02
2018-04-25T20:43:59.592Z,98281.13
2018-04-25T20:46:28.446Z,98288.66
2018-04-25T20:48:57.319Z,98287.83
2018-04-25T20:51:26.163Z,98293.19
2018-04-25T20:53:54.920Z,98290.20
2018-04-25T20:56:23.840Z,98288.03
2018-04-25T20:58:52.660Z,98285.77
2018-04-25T21:01:21.685Z,98283.50
2018-04-25T21:03:50.762Z,98280.41
2018-04-25T21:06:19.849Z,98289.78
2018-04-25T21:08:48.839Z,98292.46
2018-04-25T21:11:17.509Z,98296.06
2018-04-25T21:13:46.394Z,98295.66
2018-04-25T21:16:15.275Z,98297.09
2018-04-25T21:18:44.182Z,98288.13
2018-04-25T21:21:13.370Z,98290.49
2018-04-25T21:23:42.632Z,98290.49
2018-04-25T21:26:11.535Z,98286.98
2018-04-25T21:28:40.224Z,98288.84
2018-04-25T21:31:09.182Z,98280.39
2018-04-25T21:33:38.009Z,98282.66
2018-04-25T21:36:06.911Z,98277.91
2018-04-25T21:38:35.689Z,98278.05
2018-04-25T21:41:04.479Z,98278.05
2018-04-25T21:43:33.365Z,98280.31
2018-04-25T21:46:01.873Z,98268.77
2018-04-25T21:48:31.040Z,98269.28
2018-04-25T21:51:00.116Z,98273.71
2018-04-25T21:53:28.897Z,98271.03
2018-04-25T21:55:58.350Z,98269.28
2018-04-25T21:58:27.111Z,98268.87
2018-04-25T22:00:55.552Z,98271.13
2018-04-25T22:03:24.665Z,98270.72
2018-04-25T22:05:54.284Z,98261.86
2018-04-25T22:08:23.148Z,98269.48
2018-04-25T22:10:51.859Z,98264.13
2018-04-25T22:13:20.945Z,98265.56
2018-04-25T22:15:49.938Z,98258.55
2018-04-25T22:18:18.566Z,98263.50
2018-04-25T22:20:47.619Z,98267.20
2018-04-25T22:23:16.652Z,98277.91
2018-04-25T22:25:45.916Z,98280.59
2018-04-25T22:28:14.731Z,98282.06
2018-04-25T22:30:43.392Z,98274.95
2018-04-25T22:33:12.444Z,98278.56
2018-04-25T22:35:41.201Z,98276.30
2018-04-25T22:38:10.208Z,98280.80
2018-04-25T22:40:39.609Z,98281.72
2018-04-25T22:43:08.380Z,98279.97
2018-04-25T22:45:37.012Z,98279.14
2018-04-25T22:48:05.800Z,98276.45
2018-04-25T22:50:34.734Z,98275.22
2018-04-25T22:53:03.738Z,98273.47
2018-04-25T22:55:32.996Z,98276.25
2018-04-25T22:58:01.976Z,98271.41
2018-04-25T23:00:30.978Z,98275.93
2018-04-25T23:02:59.987Z,98273.35
2018-04-25T23:05:28.719Z,98271.28
2018-04-25T23:07:57.757Z,98266.86
2018-04-25T23:10:26.869Z,98277.28
2018-04-25T23:12:55.676Z,98280.89
2018-04-25T23:15:24.541Z,98288.41
2018-04-25T23:17:53.197Z,98294.79
2018-04-25T23:20:22.298Z,98303.84
2018-04-25T23:22:51.010Z,98310.13
2018-04-25T23:25:20.323Z,98317.75
2018-04-25T23:27:48.871Z,98322.18
2018-04-25T23:30:17.639Z,98327.13
2018-04-25T23:32:46.356Z,98325.78
2018-04-25T23:35:15.156Z,98322.28
2018-04-25T23:37:43.857Z,98328.25
2018-04-25T23:40:12.783Z,98331.44
2018-04-25T23:42:41.267Z,98338.23
2018-04-25T23:45:10.121Z,98339.25
2018-04-25T23:47:38.991Z,98346.08
2018-04-25T23:50:07.752Z,98350.61
2018-04-25T23:52:36.799Z,98354.72
2018-04-25T23:55:05.824Z,98357.50
2018-04-25T23:57:34.688Z,98358.01
